createdAt,value
2018-02-03T00:02:20.571Z,1.40
2018-02-03T00:04:48.450Z,1.40
2018-02-03T00:07:17.052Z,1.30
2018-02-03T00:09:45.261Z,1.40
2018-02-03T00:12:13.228Z,1.40
2018-02-03T00:14:40.742Z,1.50
2018-02-03T00:17:08.347Z,1.60
2018-02-03T00:19:36.223Z,1.70
2018-02-03T00:22:03.727Z,1.80
2018-02-03T00:24:31.956Z,1.90
2018-02-03T00:27:00.202Z,1.90
2018-02-03T00:29:28.087Z,1.90
2018-02-03T00:31:56.670Z,2.00
2018-02-03T00:34:24.163Z,2.10
2018-02-03T00:36:51.640Z,2.00
2018-02-03T00:39:19.509Z,2.00
2018-02-03T00:41:47.532Z,2.10
2018-02-03T00:44:15.399Z,2.20
2018-02-03T00:46:43.979Z,2.20
2018-02-03T00:49:12.302Z,2.30
2018-02-03T00:51:39.802Z,2.40
2018-02-03T00:54:07.278Z,2.40
2018-02-03T00:56:35.550Z,2.40
2018-02-03T00:59:03.815Z,2.40
2018-02-03T01:01:31.711Z,2.30
2018-02-03T01:03:59.219Z,2.40
2018-02-03T01:06:26.700Z,2.40
2018-02-03T01:08:54.984Z,2.50
2018-02-03T01:11:23.302Z,2.50
2018-02-03T01:13:50.772Z,2.50
2018-02-03T01:16:18.615Z,2.60
2018-02-03T01:18:46.123Z,2.70
2018-02-03T01:21:13.607Z,2.70
2018-02-03T01:23:41.895Z,2.70
2018-02-03T01:26:09.755Z,2.70
2018-02-03T01:28:38.009Z,2.70
2018-02-03T01:31:05.900Z,2.70
2018-02-03T01:33:33.771Z,2.60
2018-02-03T01:36:01.253Z,2.50
2018-02-03T01:38:28.748Z,2.50
2018-02-03T01:40:56.222Z,2.40
2018-02-03T01:43:24.111Z,2.20
2018-02-03T01:45:51.952Z,1.90
2018-02-03T01:48:20.199Z,1.80
2018-02-03T01:50:48.082Z,1.70
2018-02-03T01:53:16.723Z,1.70
2018-02-03T01:55:44.608Z,1.60
2018-02-03T01:58:12.117Z,1.50
2018-02-03T02:00:40.443Z,1.40
2018-02-03T02:03:07.968Z,1.40
2018-02-03T02:05:35.916Z,1.50
2018-02-03T02:08:03.766Z,1.50
2018-02-03T02:10:32.027Z,1.60
2018-02-03T02:12:59.934Z,1.70
2018-02-03T02:15:27.789Z,1.70
2018-02-03T02:17:55.675Z,1.70
2018-02-03T02:20:23.159Z,1.80
2018-02-03T02:22:50.966Z,1.70
2018-02-03T02:25:18.930Z,1.70
2018-02-03T02:27:46.395Z,1.70
2018-02-03T02:30:14.675Z,1.70
2018-02-03T02:32:42.915Z,1.70
2018-02-03T02:35:11.247Z,1.70
2018-02-03T02:37:38.951Z,1.70
2018-02-03T02:40:06.447Z,1.70
2018-02-03T02:42:34.706Z,1.80
2018-02-03T02:45:02.628Z,1.70
2018-02-03T02:47:30.109Z,1.80
2018-02-03T02:49:57.575Z,1.80
2018-02-03T02:52:26.284Z,1.80
2018-02-03T02:54:53.755Z,1.90
2018-02-03T02:57:22.098Z,1.90
2018-02-03T02:59:49.933Z,1.90
2018-02-03T03:02:17.415Z,1.90
2018-02-03T03:04:44.904Z,1.90
2018-02-03T03:07:13.291Z,2.00
2018-02-03T03:09:41.616Z,2.00
2018-02-03T03:12:09.131Z,2.10
2018-02-03T03:14:36.679Z,2.10
2018-02-03T03:17:04.982Z,2.10
2018-02-03T03:19:32.497Z,2.10
2018-02-03T03:22:00.791Z,2.00
2018-02-03T03:24:28.669Z,2.00
2018-02-03T03:26:56.536Z,2.00
2018-02-03T03:29:24.023Z,2.00
2018-02-03T03:31:51.911Z,1.90
2018-02-03T03:34:19.412Z,1.90
2018-02-03T03:36:47.687Z,1.90
2018-02-03T03:39:15.919Z,1.90
2018-02-03T03:41:43.404Z,1.90
2018-02-03T03:44:10.883Z,1.80
2018-02-03T03:46:39.136Z,1.90
2018-02-03T03:49:07.383Z,1.80
2018-02-03T03:51:35.144Z,1.80
2018-02-03T03:54:03.034Z,1.80
2018-02-03T03:56:30.919Z,1.80
2018-02-03T03:58:58.853Z,1.80
2018-02-03T04:01:26.389Z,1.80
2018-02-03T04:03:54.247Z,1.90
2018-02-03T04:06:22.059Z,1.90
2018-02-03T04:08:49.541Z,2.00
2018-02-03T04:11:17.795Z,2.00
2018-02-03T04:13:46.375Z,2.10
2018-02-03T04:16:13.855Z,2.10
2018-02-03T04:18:42.119Z,2.10
2018-02-03T04:21:10.712Z,2.10
2018-02-03T04:23:38.291Z,2.10
2018-02-03T04:26:05.776Z,2.10
2018-02-03T04:28:34.091Z,2.10
2018-02-03T04:31:01.597Z,2.10
2018-02-03T04:33:29.064Z,2.10
2018-02-03T04:35:56.942Z,2.20
2018-02-03T04:38:24.810Z,2.30
2018-02-03T04:40:52.273Z,2.30
2018-02-03T04:43:20.070Z,2.40
2018-02-03T04:45:48.312Z,2.40
2018-02-03T04:48:15.780Z,2.40
2018-02-03T04:50:44.083Z,2.50
2018-02-03T04:53:12.331Z,2.60
2018-02-03T04:55:40.202Z,2.70
2018-02-03T04:58:08.150Z,2.70
2018-02-03T05:00:35.610Z,2.60
2018-02-03T05:03:03.074Z,2.50
2018-02-03T05:05:30.883Z,2.50
2018-02-03T05:07:58.346Z,2.60
2018-02-03T05:10:25.824Z,2.70
2018-02-03T05:12:53.632Z,2.60
2018-02-03T05:15:21.152Z,2.60
2018-02-03T05:17:48.648Z,2.60
2018-02-03T05:20:16.138Z,2.60
2018-02-03T05:22:43.616Z,2.70
2018-02-03T05:25:11.129Z,2.60
2018-02-03T05:27:39.696Z,2.70
2018-02-03T05:30:07.186Z,2.70
2018-02-03T05:32:34.699Z,2.70
2018-02-03T05:35:02.485Z,2.70
2018-02-03T05:37:30.743Z,2.80
2018-02-03T05:39:58.632Z,2.80
2018-02-03T05:42:27.427Z,2.80
2018-02-03T05:44:56.278Z,2.90
2018-02-03T05:47:23.733Z,2.80
2018-02-03T05:49:51.649Z,2.90
2018-02-03T05:52:19.208Z,2.90
2018-02-03T05:54:47.431Z,2.90
2018-02-03T05:57:15.643Z,3.00
2018-02-03T05:59:43.523Z,3.00
2018-02-03T06:02:11.106Z,3.00
2018-02-03T06:04:39.347Z,3.00
2018-02-03T06:07:07.571Z,3.00
2018-02-03T06:09:35.040Z,3.10
2018-02-03T06:12:02.825Z,3.10
2018-02-03T06:14:30.307Z,3.10
2018-02-03T06:16:58.573Z,3.20
2018-02-03T06:19:26.525Z,3.20
2018-02-03T06:21:54.351Z,3.20
2018-02-03T06:24:22.692Z,3.20
2018-02-03T06:26:50.559Z,3.20
2018-02-03T06:29:18.094Z,3.20
2018-02-03T06:31:45.984Z,3.20
2018-02-03T06:34:14.568Z,3.30
2018-02-03T06:36:42.885Z,3.30
2018-02-03T06:39:11.224Z,3.30
2018-02-03T06:41:39.755Z,3.30
2018-02-03T06:44:07.310Z,3.20
2018-02-03T06:46:34.782Z,3.20
2018-02-03T06:49:02.998Z,3.20
2018-02-03T06:51:30.876Z,3.10
2018-02-03T06:53:58.377Z,3.10
2018-02-03T06:56:25.870Z,3.10
2018-02-03T06:58:54.111Z,3.00
2018-02-03T07:01:21.659Z,3.10
2018-02-03T07:03:49.474Z,3.00
2018-02-03T07:06:17.701Z,3.10
2018-02-03T07:08:45.571Z,3.10
2018-02-03T07:11:13.060Z,3.10
2018-02-03T07:13:40.914Z,3.20
2018-02-03T07:16:08.394Z,3.30
2018-02-03T07:18:36.991Z,3.40
2018-02-03T07:21:04.855Z,3.40
2018-02-03T07:23:32.344Z,3.50
2018-02-03T07:25:59.870Z,3.60
2018-02-03T07:28:27.367Z,3.50
2018-02-03T07:30:54.854Z,3.40
2018-02-03T07:33:23.057Z,3.40
2018-02-03T07:35:50.551Z,3.30
2018-02-03T07:38:18.040Z,3.30
2018-02-03T07:40:46.638Z,3.40
2018-02-03T07:43:14.099Z,3.30
2018-02-03T07:45:42.322Z,3.40
2018-02-03T07:48:10.103Z,3.30
2018-02-03T07:50:37.564Z,3.20
2018-02-03T07:53:05.036Z,3.20
2018-02-03T07:55:32.531Z,3.20
2018-02-03T07:58:00.014Z,3.30
2018-02-03T08:00:28.034Z,3.30
2018-02-03T08:02:56.304Z,3.20
2018-02-03T08:05:24.563Z,3.20
2018-02-03T08:07:52.437Z,3.30
2018-02-03T08:10:20.731Z,3.30
2018-02-03T08:12:48.609Z,3.30
2018-02-03T08:15:16.863Z,3.40
2018-02-03T08:17:44.632Z,3.30
2018-02-03T08:20:12.885Z,3.40
2018-02-03T08:22:40.352Z,3.40
2018-02-03T08:25:08.945Z,3.40
2018-02-03T08:27:37.175Z,3.40
2018-02-03T08:30:04.652Z,3.60
2018-02-03T08:32:32.913Z,3.60
2018-02-03T08:35:00.411Z,3.70
2018-02-03T08:37:28.005Z,3.60
2018-02-03T08:39:55.804Z,3.60
2018-02-03T08:42:23.286Z,3.70
2018-02-03T08:44:50.781Z,3.70
2018-02-03T08:47:18.275Z,3.80
2018-02-03T08:49:45.764Z,3.80
2018-02-03T08:52:13.235Z,3.80
2018-02-03T08:54:41.590Z,3.90
2018-02-03T08:57:09.070Z,3.90
2018-02-03T08:59:37.326Z,3.90
2018-02-03T09:02:04.803Z,3.90
2018-02-03T09:04:32.682Z,3.90
2018-02-03T09:07:00.175Z,3.90
2018-02-03T09:09:27.990Z,3.90
2018-02-03T09:12:05.531Z,3.90
2018-02-03T09:14:33.468Z,3.90
2018-02-03T09:17:01.470Z,4.00
2018-02-03T09:19:28.956Z,4.00
2018-02-03T09:21:56.448Z,4.10
2018-02-03T09:24:23.927Z,4.10
2018-02-03T09:26:51.784Z,4.10
2018-02-03T09:29:19.267Z,4.10
2018-02-03T09:31:47.185Z,4.00
2018-02-03T09:34:14.631Z,4.10
2018-02-03T09:36:42.112Z,4.10
2018-02-03T09:39:09.612Z,4.20
2018-02-03T09:41:37.111Z,4.10
2018-02-03T09:44:05.398Z,4.10
2018-02-03T09:46:34.318Z,4.20
2018-02-03T09:49:02.561Z,4.20
2018-02-03T09:51:30.896Z,4.30
2018-02-03T09:53:58.411Z,4.30
2018-02-03T09:56:26.267Z,4.30
2018-02-03T09:58:53.784Z,4.40
2018-02-03T10:01:21.272Z,4.40
2018-02-03T10:03:49.527Z,4.40
2018-02-03T10:06:17.404Z,4.40
2018-02-03T10:08:45.039Z,4.40
2018-02-03T10:11:13.292Z,4.40
2018-02-03T10:13:40.844Z,4.40
2018-02-03T10:16:08.303Z,4.50
2018-02-03T10:18:35.790Z,4.50
2018-02-03T10:21:03.293Z,4.60
2018-02-03T10:23:30.791Z,4.60
2018-02-03T10:25:58.712Z,4.60
2018-02-03T10:28:26.951Z,4.70
2018-02-03T10:30:54.431Z,4.60
2018-02-03T10:33:22.678Z,4.80
2018-02-03T10:35:50.580Z,4.80
2018-02-03T10:38:18.467Z,4.80
2018-02-03T10:40:46.331Z,4.90
2018-02-03T10:43:14.509Z,4.90
2018-02-03T10:45:42.003Z,5.00
2018-02-03T10:48:09.491Z,5.00
2018-02-03T10:50:36.982Z,5.10
2018-02-03T10:53:04.460Z,5.20
2018-02-03T10:55:33.072Z,5.30
2018-02-03T10:58:00.553Z,5.30
2018-02-03T11:00:34.523Z,5.60
2018-02-03T11:03:02.443Z,5.60
2018-02-03T11:05:30.696Z,5.70
2018-02-03T11:07:58.616Z,5.70
2018-02-03T11:10:26.441Z,5.40
2018-02-03T11:12:54.668Z,5.00
2018-02-03T11:15:22.150Z,5.00
2018-02-03T11:17:50.384Z,5.00
2018-02-03T11:20:17.855Z,5.00
2018-02-03T11:22:45.321Z,4.90
2018-02-03T11:25:12.816Z,4.90
2018-02-03T11:27:41.132Z,4.80
2018-02-03T11:30:08.608Z,4.80
2018-02-03T11:32:36.482Z,4.70
2018-02-03T11:35:03.947Z,4.50
2018-02-03T11:37:31.807Z,4.50
2018-02-03T11:39:59.684Z,4.40
2018-02-03T11:42:27.161Z,4.30
2018-02-03T11:44:55.027Z,4.10
2018-02-03T11:47:22.795Z,4.00
2018-02-03T11:49:50.664Z,4.00
2018-02-03T11:52:18.527Z,4.10
2018-02-03T11:54:46.492Z,4.00
2018-02-03T11:57:14.764Z,4.00
2018-02-03T11:59:42.655Z,4.00
2018-02-03T12:02:10.144Z,4.10
2018-02-03T12:04:37.614Z,4.10
2018-02-03T12:07:05.490Z,4.20
2018-02-03T12:09:33.008Z,4.20
2018-02-03T12:12:00.491Z,4.20
2018-02-03T12:14:27.951Z,4.30
2018-02-03T12:16:56.201Z,4.20
2018-02-03T12:19:23.692Z,4.20
2018-02-03T12:21:51.596Z,4.20
2018-02-03T12:24:19.839Z,4.10
2018-02-03T12:26:47.365Z,4.10
2018-02-03T12:29:15.235Z,4.10
2018-02-03T12:31:43.868Z,4.00
2018-02-03T12:34:11.339Z,4.00
2018-02-03T12:36:39.587Z,4.00
2018-02-03T12:39:08.949Z,4.00
2018-02-03T12:41:36.408Z,4.00
2018-02-03T12:44:03.890Z,4.00
2018-02-03T12:46:31.775Z,4.00
2018-02-03T12:48:59.251Z,4.20
2018-02-03T12:51:27.129Z,4.30
2018-02-03T12:53:54.636Z,4.20
2018-02-03T12:56:22.154Z,4.20
2018-02-03T12:58:49.632Z,4.20
2018-02-03T13:01:17.216Z,4.30
2018-02-03T13:03:44.694Z,4.40
2018-02-03T13:06:13.467Z,4.40
2018-02-03T13:08:41.716Z,4.20
2018-02-03T13:11:09.196Z,4.40
2018-02-03T13:13:37.067Z,4.40
2018-02-03T13:16:04.596Z,4.50
2018-02-03T13:18:32.471Z,4.40
2018-02-03T13:20:59.971Z,4.40
2018-02-03T13:23:28.290Z,4.60
2018-02-03T13:25:56.559Z,4.60
2018-02-03T13:28:24.111Z,4.40
2018-02-03T13:30:52.355Z,4.40
2018-02-03T13:33:19.872Z,4.40
2018-02-03T13:35:47.347Z,4.40
2018-02-03T13:38:15.266Z,4.30
2018-02-03T13:40:43.131Z,4.40
2018-02-03T13:43:10.663Z,4.30
2018-02-03T13:45:38.551Z,4.20
2018-02-03T13:48:06.840Z,4.20
2018-02-03T13:50:34.775Z,4.00
2018-02-03T13:53:03.839Z,4.30
2018-02-03T13:55:31.303Z,4.30
2018-02-03T13:57:59.223Z,4.30
2018-02-03T14:00:26.807Z,4.30
2018-02-03T14:02:54.683Z,4.30
2018-02-03T14:05:22.244Z,4.30
2018-02-03T14:07:49.753Z,4.20
2018-02-03T14:10:17.632Z,4.20
2018-02-03T14:12:45.916Z,4.30
2018-02-03T14:15:13.408Z,4.40
2018-02-03T14:17:40.898Z,4.40
2018-02-03T14:20:08.780Z,4.30
2018-02-03T14:22:36.670Z,4.40
2018-02-03T14:25:05.972Z,4.50
2018-02-03T14:27:33.484Z,4.40
2018-02-03T14:30:01.781Z,4.50
2018-02-03T14:32:29.279Z,4.40
2018-02-03T14:34:56.768Z,4.50
2018-02-03T14:37:24.288Z,4.50
2018-02-03T14:39:51.801Z,4.50
2018-02-03T14:42:19.752Z,4.50
2018-02-03T14:44:47.264Z,4.50
2018-02-03T14:47:14.753Z,4.40
2018-02-03T14:49:42.231Z,4.40
2018-02-03T14:52:09.794Z,4.40
2018-02-03T14:54:38.041Z,4.50
2018-02-03T14:57:05.519Z,6.70
2018-02-03T14:59:33.043Z,4.40
2018-02-03T15:02:00.567Z,4.40
2018-02-03T15:04:28.044Z,4.40
2018-02-03T15:06:55.535Z,4.30
2018-02-03T15:09:23.004Z,4.30
2018-02-03T15:11:50.527Z,4.30
2018-02-03T15:14:18.483Z,4.30
2018-02-03T15:16:45.981Z,4.30
2018-02-03T15:19:13.464Z,4.30
2018-02-03T15:21:41.431Z,4.30
2018-02-03T15:24:09.803Z,4.30
2018-02-03T15:26:37.260Z,4.30
2018-02-03T15:29:05.595Z,4.30
2018-02-03T15:31:34.280Z,4.20
2018-02-03T15:34:01.849Z,4.20
2018-02-03T15:36:29.372Z,4.20
2018-02-03T15:38:57.255Z,4.20
2018-02-03T15:41:24.723Z,4.20
2018-02-03T15:43:52.235Z,4.20
2018-02-03T15:46:20.104Z,4.20
2018-02-03T15:48:48.359Z,4.20
2018-02-03T15:51:15.941Z,4.20
2018-02-03T15:53:44.188Z,4.20
2018-02-03T15:56:11.659Z,4.20
2018-02-03T15:58:39.951Z,4.20
2018-02-03T16:01:07.447Z,4.20
2018-02-03T16:03:34.999Z,4.20
2018-02-03T16:06:02.820Z,4.20
2018-02-03T16:08:31.051Z,4.20
2018-02-03T16:10:58.531Z,4.30
2018-02-03T16:13:26.008Z,4.30
2018-02-03T16:15:54.239Z,4.20
2018-02-03T16:18:21.747Z,4.20
2018-02-03T16:20:50.343Z,4.20
2018-02-03T16:23:17.835Z,4.10
2018-02-03T16:25:45.332Z,4.10
2018-02-03T16:28:13.614Z,4.20
2018-02-03T16:30:41.891Z,4.20
2018-02-03T16:33:09.490Z,4.20
2018-02-03T16:35:37.211Z,4.30
2018-02-03T16:38:04.680Z,4.30
2018-02-03T16:40:32.924Z,4.30
2018-02-03T16:43:00.464Z,4.30
2018-02-03T16:45:27.988Z,4.30
2018-02-03T16:47:55.871Z,4.40
2018-02-03T16:50:24.189Z,4.40
2018-02-03T16:52:52.067Z,4.40
2018-02-03T16:55:19.945Z,4.40
2018-02-03T16:57:48.112Z,4.40
2018-02-03T17:00:16.074Z,4.40
2018-02-03T17:02:43.543Z,4.40
2018-02-03T17:05:11.495Z,4.40
2018-02-03T17:07:39.018Z,4.40
2018-02-03T17:10:06.891Z,4.40
2018-02-03T17:12:35.119Z,4.40
2018-02-03T17:15:03.369Z,4.40
2018-02-03T17:17:31.291Z,4.40
2018-02-03T17:19:59.519Z,4.40
2018-02-03T17:22:27.382Z,4.50
2018-02-03T17:24:55.639Z,4.50
2018-02-03T17:27:23.573Z,4.50
2018-02-03T17:29:51.044Z,4.50
2018-02-03T17:32:18.545Z,4.50
2018-02-03T17:34:46.867Z,4.50
2018-02-03T17:50:38.899Z,4.30
2018-02-03T17:53:06.387Z,4.20
2018-02-03T17:55:39.914Z,4.20
2018-02-03T17:58:07.880Z,4.20
2018-02-03T18:00:36.115Z,4.10
2018-02-03T18:03:03.993Z,4.20
2018-02-03T18:05:31.859Z,4.10
2018-02-03T18:07:59.333Z,4.10
2018-02-03T18:10:27.611Z,4.00
2018-02-03T18:12:55.899Z,4.00
2018-02-03T18:15:23.780Z,4.10
2018-02-03T18:17:51.684Z,4.20
2018-02-03T18:20:19.182Z,4.20
2018-02-03T18:22:47.505Z,4.30
2018-02-03T18:25:15.392Z,4.30
2018-02-03T18:27:43.292Z,4.20
2018-02-03T18:30:11.160Z,4.20
2018-02-03T18:32:39.418Z,4.20
2018-02-03T18:35:06.908Z,4.10
2018-02-03T18:37:34.372Z,4.10
2018-02-03T18:40:01.959Z,4.00
2018-02-03T18:42:30.231Z,4.00
2018-02-03T18:44:58.097Z,4.00
2018-02-03T18:47:25.984Z,3.90
2018-02-03T18:49:53.480Z,3.80
2018-02-03T18:52:21.357Z,3.80
2018-02-03T18:54:49.209Z,3.80
2018-02-03T18:57:17.450Z,3.70
2018-02-03T18:59:44.951Z,3.70
2018-02-03T19:02:12.487Z,3.80
2018-02-03T19:04:40.738Z,3.80
2018-02-03T19:07:08.780Z,3.80
2018-02-03T19:09:36.330Z,3.80
2018-02-03T19:12:04.615Z,3.90
2018-02-03T19:14:32.101Z,3.90
2018-02-03T19:16:59.915Z,3.80
2018-02-03T19:19:27.868Z,3.80
2018-02-03T19:21:55.798Z,3.70
2018-02-03T19:24:24.007Z,3.60
2018-02-03T19:26:51.910Z,3.50
2018-02-03T19:29:19.882Z,3.50
2018-02-03T19:31:48.132Z,3.40
2018-02-03T19:34:16.390Z,3.40
2018-02-03T19:36:44.647Z,3.40
2018-02-03T19:39:12.605Z,3.30
2018-02-03T19:41:40.103Z,3.40
2018-02-03T19:44:08.338Z,3.40
2018-02-03T19:46:36.267Z,3.30
2018-02-03T19:49:03.735Z,3.30
2018-02-03T19:51:31.222Z,3.20
2018-02-03T19:54:00.694Z,3.20
2018-02-03T19:56:28.189Z,3.20
2018-02-03T19:58:55.662Z,3.20
2018-02-03T20:01:23.576Z,3.10
2018-02-03T20:03:51.063Z,3.10
2018-02-03T20:06:18.955Z,3.10
2018-02-03T20:08:46.858Z,3.10
2018-02-03T20:11:15.488Z,3.00
2018-02-03T20:13:42.974Z,2.80
2018-02-03T20:16:11.242Z,2.90
2018-02-03T20:18:39.143Z,2.80
2018-02-03T20:21:06.619Z,2.80
2018-02-03T20:23:34.115Z,2.80
2018-02-03T20:26:01.975Z,2.80
2018-02-03T20:28:31.003Z,2.80
2018-02-03T20:30:58.916Z,2.80
2018-02-03T20:33:26.828Z,2.80
2018-02-03T20:35:55.115Z,2.90
2018-02-03T20:38:23.006Z,2.80
2018-02-03T20:40:50.486Z,2.90
2018-02-03T20:43:18.009Z,2.90
2018-02-03T20:45:45.788Z,2.80
2018-02-03T20:48:13.253Z,2.80
2018-02-03T20:50:41.916Z,2.80
2018-02-03T20:53:09.423Z,2.90
2018-02-03T20:55:36.947Z,2.80
2018-02-03T20:58:04.824Z,2.80
2018-02-03T21:00:32.998Z,2.80
2018-02-03T21:03:00.477Z,2.80
2018-02-03T21:05:28.389Z,2.80
2018-02-03T21:07:56.263Z,2.80
2018-02-03T21:10:24.138Z,2.70
2018-02-03T21:12:51.609Z,2.70
2018-02-03T21:15:19.913Z,2.70
2018-02-03T21:17:48.195Z,2.70
2018-02-03T21:20:15.696Z,2.70
2018-02-03T21:22:43.264Z,2.70
2018-02-03T21:25:10.769Z,2.70
2018-02-03T21:27:38.251Z,2.70
2018-02-03T21:30:06.735Z,2.70
2018-02-03T21:32:34.207Z,2.70
2018-02-03T21:35:01.691Z,2.60
2018-02-03T21:37:29.192Z,2.60
2018-02-03T21:39:57.114Z,2.60
2018-02-03T21:42:25.086Z,2.60
2018-02-03T21:44:52.997Z,2.70
2018-02-03T21:47:20.891Z,2.60
2018-02-03T21:49:48.807Z,2.60
2018-02-03T21:52:16.823Z,2.60
2018-02-03T21:54:44.712Z,2.60
2018-02-03T21:57:12.588Z,2.60
2018-02-03T21:59:40.476Z,2.50
2018-02-03T22:02:08.391Z,2.50
2018-02-03T22:04:36.442Z,2.60
2018-02-03T22:07:04.320Z,2.60
2018-02-03T22:09:32.244Z,2.60
2018-02-03T22:11:59.725Z,2.60
2018-02-03T22:14:28.071Z,2.60
2018-02-03T22:16:55.542Z,2.60
2018-02-03T22:19:23.426Z,2.50
2018-02-03T22:21:51.671Z,2.50
2018-02-03T22:24:19.714Z,2.60
2018-02-03T22:26:47.672Z,2.50
2018-02-03T22:29:15.259Z,2.40
2018-02-03T22:31:43.597Z,2.40
2018-02-03T22:34:12.127Z,2.30
2018-02-03T22:36:40.431Z,2.30
2018-02-03T22:39:08.305Z,2.30
2018-02-03T22:41:36.177Z,2.40
2018-02-03T22:44:04.069Z,2.40
2018-02-03T22:46:32.469Z,2.30
2018-02-03T22:49:00.482Z,2.20
2018-02-03T22:51:28.359Z,2.20
2018-02-03T22:53:56.602Z,2.20
2018-02-03T22:56:24.721Z,2.20
2018-02-03T22:58:52.228Z,2.20
2018-02-03T23:01:19.748Z,2.20
2018-02-03T23:03:47.991Z,2.10
2018-02-03T23:06:16.560Z,2.10
2018-02-03T23:08:44.139Z,2.10
2018-02-03T23:11:12.651Z,2.10
2018-02-03T23:13:40.147Z,2.00
2018-02-03T23:16:07.647Z,2.10
2018-02-03T23:18:36.249Z,2.10
2018-02-03T23:21:03.735Z,2.10
2018-02-03T23:23:31.234Z,2.00
2018-02-03T23:25:59.605Z,2.00
2018-02-03T23:28:27.524Z,2.10
2018-02-03T23:30:55.092Z,2.10
2018-02-03T23:33:23.219Z,2.20
2018-02-03T23:35:51.449Z,2.20
2018-02-03T23:38:18.939Z,2.10
2018-02-03T23:40:46.525Z,2.00
2018-02-03T23:43:14.111Z,2.00
2018-02-03T23:45:41.588Z,2.00
2018-02-03T23:48:10.001Z,1.90
2018-02-03T23:50:37.982Z,1.90
2018-02-03T23:53:05.942Z,1.90
2018-02-03T23:55:34.419Z,1.90
2018-02-03T23:58:01.938Z,1.70
